Time;durP1;ratioP1;P1;durP2;ratioP2;P2;SDS_P1;SDS_P2;PMS_P1;PMS_P2;Temp;Humidity;BMP_temperature;BMP_pressure;BME280_temperature;BME280_humidity;BME280_pressure;Samples;Min_cycle;Max_cycle;Signal;HPM_P1;HPM_P2
2022/10/22 00:02:10;;;;;;;8.77;4.47;;;;;;;12.36;100.00;100838.41;5094066;28;20367;-56
2022/10/22 00:04:35;;;;;;;11.57;4.57;;;;;;;12.32;100.00;100829.84;5093496;28;20539;-56
2022/10/22 00:07:00;;;;;;;11.00;4.85;;;;;;;12.31;100.00;100837.97;5089861;28;20032;-57
2022/10/22 00:09:26;;;;;;;11.23;4.70;;;;;;;12.30;100.00;100836.25;5081398;28;20028;-56
2022/10/22 00:11:51;;;;;;;7.55;4.38;;;;;;;12.27;100.00;100829.38;5094030;28;20037;-56
2022/10/22 00:14:17;;;;;;;12.00;5.10;;;;;;;12.28;100.00;100831.06;5089069;28;20038;-55
2022/10/22 00:16:42;;;;;;;10.50;4.60;;;;;;;12.28;100.00;100833.72;5093682;28;20020;-56
2022/10/22 00:19:08;;;;;;;8.88;4.60;;;;;;;12.26;100.00;100825.03;5091490;28;20103;-56
2022/10/22 00:21:34;;;;;;;12.68;4.88;;;;;;;12.27;100.00;100840.03;5093861;28;20049;-56
2022/10/22 00:23:59;;;;;;;9.43;4.55;;;;;;;12.28;100.00;100828.41;5082647;28;20032;-56
2022/10/22 00:26:25;;;;;;;11.93;4.40;;;;;;;12.27;100.00;100831.19;5103151;28;20016;-56
2022/10/22 00:28:50;;;;;;;11.98;5.18;;;;;;;12.30;100.00;100830.94;5088866;28;20067;-56
2022/10/22 00:31:18;;;;;;;9.00;4.45;;;;;;;12.31;100.00;100822.00;5093368;28;20073;-56
2022/10/22 00:33:45;;;;;;;7.97;4.65;;;;;;;12.31;100.00;100832.63;5093286;28;20489;-56
2022/10/22 00:36:11;;;;;;;9.43;4.35;;;;;;;12.32;100.00;100839.63;5081059;28;20095;-56
2022/10/22 00:38:36;;;;;;;12.82;5.00;;;;;;;12.34;100.00;100840.34;5093305;28;20024;-56
2022/10/22 00:41:01;;;;;;;13.77;4.82;;;;;;;12.34;100.00;100837.69;5081921;28;20413;-56
2022/10/22 00:43:27;;;;;;;9.20;5.28;;;;;;;12.34;100.00;100846.53;5089704;28;20035;-57
2022/10/22 00:45:52;;;;;;;8.77;4.25;;;;;;;12.32;100.00;100843.16;5093294;28;20034;-56
2022/10/22 00:48:20;;;;;;;8.68;4.30;;;;;;;12.29;100.00;100840.75;5129528;22;20029;-50
2022/10/22 00:50:56;;;;;;;9.27;4.60;;;;;;;12.32;100.00;100843.16;5055182;28;20133;-50
2022/10/22 00:53:27;;;;;;;7.78;4.30;;;;;;;12.31;100.00;100840.63;5063333;28;20031;-49
2022/10/22 00:55:54;;;;;;;11.32;4.82;;;;;;;12.31;100.00;100844.13;5072827;28;20781;-50
2022/10/22 00:58:23;;;;;;;9.55;4.97;;;;;;;12.29;100.00;100832.78;5055878;28;20467;-51
2022/10/22 01:00:48;;;;;;;12.60;5.28;;;;;;;12.30;100.00;100836.25;5070963;28;20052;-51
2022/10/22 01:03:14;;;;;;;10.90;5.22;;;;;;;12.29;100.00;100840.75;5072363;28;20059;-49
2022/10/22 01:05:49;;;;;;;9.82;4.90;;;;;;;12.29;100.00;100840.75;5072534;28;20107;-51
2022/10/22 01:08:25;;;;;;;8.27;5.03;;;;;;;12.33;100.00;100838.69;5086668;28;20485;-51
2022/10/22 01:11:02;;;;;;;8.63;5.05;;;;;;;12.33;100.00;100834.19;5068372;28;20478;-51
2022/10/22 01:13:40;;;;;;;11.48;5.03;;;;;;;12.30;100.00;100839.75;5071554;28;20047;-49
2022/10/22 01:16:26;;;;;;;10.13;5.30;;;;;;;12.30;100.00;100844.25;5060143;28;20044;-52
2022/10/22 01:19:19;;;;;;;9.38;4.80;;;;;;;12.30;100.00;100837.09;5072319;28;20021;-51
2022/10/22 01:21:50;;;;;;;11.18;5.57;;;;;;;12.27;100.00;100832.03;5069698;28;20025;-50
2022/10/22 01:24:31;;;;;;;13.90;5.25;;;;;;;12.27;100.00;100831.19;5067258;28;20465;-52
2022/10/22 01:27:34;;;;;;;15.15;6.38;;;;;;;12.25;100.00;100828.66;5071721;28;20025;-51
2022/10/22 01:30:02;;;;;;;12.13;5.50;;;;;;;12.20;100.00;100829.03;5072004;28;20036;-48
2022/10/22 01:32:29;;;;;;;9.40;5.75;;;;;;;12.19;100.00;100826.50;5071078;28;20078;-51
2022/10/22 01:35:00;;;;;;;11.73;5.50;;;;;;;12.16;100.00;100830.28;5071463;28;20024;-49
2022/10/22 01:37:30;;;;;;;11.93;5.78;;;;;;;12.13;100.00;100830.53;5072129;28;20028;-49
2022/10/22 01:39:57;;;;;;;10.68;5.97;;;;;;;12.14;100.00;100834.03;5071520;28;20029;-51
2022/10/22 01:42:23;;;;;;;15.43;5.75;;;;;;;12.11;100.00;100826.31;5068567;28;20040;-50
2022/10/22 01:44:49;;;;;;;9.55;5.70;;;;;;;12.08;100.00;100827.41;5071533;28;20024;-49
2022/10/22 01:47:35;;;;;;;11.27;6.03;;;;;;;12.04;100.00;100826.00;5072035;28;20564;-50
2022/10/22 01:50:19;;;;;;;11.65;5.25;;;;;;;12.03;100.00;100819.81;5052522;28;20052;-49
2022/10/22 01:53:03;;;;;;;9.32;5.22;;;;;;;12.03;100.00;100822.47;5051202;28;20048;-52
2022/10/22 01:56:02;;;;;;;11.10;5.40;;;;;;;12.01;100.00;100821.75;5048702;28;20475;-49
2022/10/22 01:58:35;;;;;;;;;;;;;;;12.03;100.00;100825.13;5045686;28;20029;-48
2022/10/22 02:01:20;;;;;;;13.18;5.60;;;;;;;11.99;100.00;100831.69;5055480;28;19913;-51
2022/10/22 02:04:36;;;;;;;11.98;5.40;;;;;;;11.98;100.00;100832.66;5055730;28;20508;-49
2022/10/22 02:07:06;;;;;;;8.35;5.60;;;;;;;11.93;100.00;100834.84;4947424;28;20034;-49
2022/10/22 02:09:32;;;;;;;15.07;5.65;;;;;;;11.93;100.00;100839.34;5044719;28;20072;-48
2022/10/22 02:12:01;;;;;;;10.25;5.32;;;;;;;11.91;100.00;100834.13;5053621;28;20060;-49
2022/10/22 02:14:29;;;;;;;12.43;5.53;;;;;;;11.91;100.00;100838.59;5055530;28;20032;-48
2022/10/22 02:16:57;;;;;;;12.32;5.50;;;;;;;11.88;100.00;100839.69;5055572;28;20033;-50
2022/10/22 02:19:35;;;;;;;12.27;5.63;;;;;;;11.89;100.00;100838.72;5047779;28;20025;-49
2022/10/22 02:22:00;;;;;;;9.55;5.53;;;;;;;11.88;100.00;100839.69;5049722;28;20389;-51
2022/10/22 02:24:26;;;;;;;12.45;6.05;;;;;;;11.87;100.00;100840.63;5054566;28;20024;-48
2022/10/22 02:27:01;;;;;;;12.82;5.15;;;;;;;11.84;100.00;100833.75;5055357;28;20032;-51
2022/10/22 02:29:33;;;;;;;12.82;5.40;;;;;;;11.82;100.00;100837.50;5055536;28;20040;-50
2022/10/22 02:32:02;;;;;;;15.15;5.53;;;;;;;11.83;100.00;100836.56;5052327;28;20033;-49
2022/10/22 02:34:30;;;;;;;11.48;5.80;;;;;;;11.81;100.00;100835.84;5055530;28;20028;-51
2022/10/22 02:36:57;;;;;;;12.00;5.65;;;;;;;11.80;100.00;100831.47;5055105;28;20017;-49
2022/10/22 02:39:23;;;;;;;14.63;5.78;;;;;;;11.81;100.00;100841.16;5055147;28;20063;-50
2022/10/22 02:41:48;;;;;;;10.57;5.15;;;;;;;11.77;100.00;100834.38;5053074;28;20060;-51
2022/10/22 02:44:13;;;;;;;13.10;5.68;;;;;;;11.78;100.00;100836.09;5055228;28;20055;-50
2022/10/22 02:46:39;;;;;;;12.20;5.55;;;;;;;11.76;100.00;100832.72;5054670;28;20029;-52
2022/10/22 02:49:05;;;;;;;9.23;4.97;;;;;;;11.76;100.00;100833.53;5057015;28;20099;-49
2022/10/22 02:51:30;;;;;;;14.70;5.50;;;;;;;11.78;100.00;100842.25;5067815;28;20017;-50
2022/10/22 02:53:56;;;;;;;13.85;5.72;;;;;;;11.77;100.00;100845.88;5072493;28;20021;-48
2022/10/22 02:56:21;;;;;;;16.27;6.00;;;;;;;11.77;100.00;100843.19;5071896;28;20021;-49
2022/10/22 02:58:46;;;;;;;10.57;5.38;;;;;;;11.78;100.00;100846.72;5056836;28;20027;-50
2022/10/22 03:01:11;;;;;;;14.00;5.93;;;;;;;11.76;100.00;100841.53;5061414;28;20063;-50
2022/10/22 03:03:37;;;;;;;17.02;5.57;;;;;;;11.77;100.00;100845.88;5069174;28;20063;-49
2022/10/22 03:06:02;;;;;;;13.80;5.93;;;;;;;11.76;100.00;100849.50;5074712;28;20040;-49
2022/10/22 03:08:28;;;;;;;15.27;5.28;;;;;;;11.76;100.00;100846.84;5069597;28;20034;-48
2022/10/22 03:10:53;;;;;;;18.45;5.82;;;;;;;11.77;100.00;100853.00;5073599;28;20034;-49
2022/10/22 03:13:18;;;;;;;10.40;4.75;;;;;;;11.74;100.00;100858.56;5066001;28;20029;-49
2022/10/22 03:15:43;;;;;;;12.38;5.63;;;;;;;11.74;100.00;100854.13;5061432;28;20024;-49
2022/10/22 03:18:09;;;;;;;14.75;6.05;;;;;;;11.75;100.00;100854.97;5073934;28;20102;-51
2022/10/22 03:20:34;;;;;;;12.45;5.30;;;;;;;11.74;100.00;100855.91;5061306;28;20036;-48
2022/10/22 03:23:01;;;;;;;15.18;5.22;;;;;;;11.73;100.00;100859.56;5066142;28;20360;-47
2022/10/22 03:25:27;;;;;;;15.43;5.32;;;;;;;11.71;100.00;100862.34;5058147;28;20036;-48
2022/10/22 03:27:55;;;;;;;9.80;5.18;;;;;;;11.71;100.00;100858.81;5056460;28;20047;-48
2022/10/22 03:30:21;;;;;;;19.20;5.57;;;;;;;11.70;100.00;100859.81;5070441;28;20394;-52
2022/10/22 03:32:46;;;;;;;11.32;5.63;;;;;;;11.71;100.00;100862.34;5063166;28;20044;-48
2022/10/22 03:35:11;;;;;;;18.48;5.35;;;;;;;11.71;100.00;100857.03;5057590;28;20027;-49
2022/10/22 03:37:38;;;;;;;10.40;5.00;;;;;;;11.70;100.00;100865.97;5065457;28;20394;-51
2022/10/22 03:40:06;;;;;;;15.32;5.55;;;;;;;11.72;100.00;100871.16;5063983;28;20028;-48
2022/10/22 03:42:31;;;;;;;17.50;5.75;;;;;;;11.72;100.00;100876.50;5068415;28;20020;-51
2022/10/22 03:44:56;;;;;;;14.57;5.90;;;;;;;11.73;100.00;100871.03;5069212;28;20106;-49
2022/10/22 03:47:23;;;;;;;14.10;5.55;;;;;;;11.75;100.00;100884.22;5064216;28;20065;-51
2022/10/22 03:49:49;;;;;;;19.23;6.43;;;;;;;11.76;100.00;100876.13;5054428;28;20045;-49
2022/10/22 03:52:14;;;;;;;13.23;6.15;;;;;;;11.76;100.00;100886.78;5053226;28;20025;-49
2022/10/22 03:54:41;;;;;;;12.40;5.55;;;;;;;11.79;100.00;100883.00;5053500;28;20021;-49
2022/10/22 03:57:06;;;;;;;17.85;5.70;;;;;;;11.78;100.00;100890.16;5053912;28;20077;-48
2022/10/22 03:59:42;;;;;;;17.50;6.20;;;;;;;11.79;100.00;100889.19;5042613;28;20351;-49
2022/10/22 04:02:09;;;;;;;23.38;7.10;;;;;;;11.84;100.00;100888.81;5045359;28;20056;-48
2022/10/22 04:04:35;;;;;;;17.83;6.85;;;;;;;11.84;100.00;100886.16;5053007;28;20032;-50
2022/10/22 04:07:00;;;;;;;22.90;6.75;;;;;;;11.84;100.00;100888.81;5052358;28;20099;-49
2022/10/22 04:09:25;;;;;;;18.17;6.72;;;;;;;11.84;100.00;100889.66;5050524;28;20025;-48
2022/10/22 04:11:51;;;;;;;19.95;6.53;;;;;;;11.83;100.00;100885.28;5053161;28;20036;-52
2022/10/22 04:14:16;;;;;;;21.10;7.20;;;;;;;11.85;100.00;100893.16;5053008;28;20040;-50
2022/10/22 04:16:41;;;;;;;19.02;6.70;;;;;;;11.87;100.00;100893.88;5053179;28;20037;-48
2022/10/22 04:19:07;;;;;;;19.92;7.35;;;;;;;11.90;100.00;100898.09;5053091;28;20017;-48
2022/10/22 04:21:33;;;;;;;21.40;6.93;;;;;;;11.90;100.00;100898.94;5045939;28;20025;-52
2022/10/22 04:23:59;;;;;;;24.77;7.80;;;;;;;11.91;100.00;100897.16;5049965;28;20141;-49
2022/10/22 04:26:24;;;;;;;27.25;7.55;;;;;;;11.91;100.00;100891.81;5046240;28;20056;-50
2022/10/22 04:28:50;;;;;;;21.80;7.35;;;;;;;11.91;100.00;100895.34;5049290;28;20040;-50
2022/10/22 04:31:18;;;;;;;20.65;6.40;;;;;;;11.93;100.00;100896.06;5053360;28;20074;-51
2022/10/22 04:33:44;;;;;;;21.88;6.82;;;;;;;11.96;100.00;100898.47;5052794;28;20580;-49
2022/10/22 04:36:17;;;;;;;26.55;7.22;;;;;;;11.96;100.00;100897.66;5052292;28;20057;-49
2022/10/22 04:38:45;;;;;;;20.40;7.40;;;;;;;11.95;100.00;100896.78;5052595;28;20055;-47
2022/10/22 04:41:19;;;;;;;18.63;6.70;;;;;;;11.98;100.00;100896.53;5052753;28;20052;-49
2022/10/22 04:43:45;;;;;;;20.42;6.88;;;;;;;11.99;100.00;100895.56;5052625;28;20044;-51
2022/10/22 04:46:12;;;;;;;20.17;6.75;;;;;;;11.99;100.00;100903.56;5051912;28;20534;-49
2022/10/22 04:48:39;;;;;;;24.70;7.50;;;;;;;11.99;100.00;100897.38;5052515;28;20041;-47
2022/10/22 04:51:05;;;;;;;23.83;6.75;;;;;;;11.99;100.00;100897.38;5064185;28;20497;-48
2022/10/22 04:53:32;;;;;;;23.25;6.22;;;;;;;12.00;100.00;100905.22;5070581;28;20398;-49
2022/10/22 04:56:06;;;;;;;21.27;6.68;;;;;;;12.01;100.00;100906.09;5060351;28;20432;-51
2022/10/22 04:58:32;;;;;;;16.52;6.85;;;;;;;12.03;100.00;100904.16;5066152;28;20509;-49
2022/10/22 05:00:57;;;;;;;16.83;6.93;;;;;;;12.03;100.00;100905.00;5072083;28;20059;-51
2022/10/22 05:03:24;;;;;;;15.52;6.72;;;;;;;12.05;100.00;100910.19;5072366;28;20028;-47
2022/10/22 05:05:49;;;;;;;26.83;7.53;;;;;;;12.05;100.00;100907.53;5068248;28;20060;-49
2022/10/22 05:08:14;;;;;;;19.90;6.25;;;;;;;12.07;100.00;100902.91;5063010;28;20063;-49
2022/10/22 05:10:40;;;;;;;24.67;7.80;;;;;;;12.08;100.00;100906.44;5069593;28;20040;-49
2022/10/22 05:13:05;;;;;;;21.52;6.75;;;;;;;12.10;100.00;100908.00;5064998;28;20040;-50
2022/10/22 05:15:32;;;;;;;22.35;6.95;;;;;;;12.13;100.00;100904.25;5066224;28;20025;-52
2022/10/22 05:17:57;;;;;;;23.95;6.78;;;;;;;12.14;100.00;100908.56;5043838;28;20079;-50
2022/10/22 05:20:22;;;;;;;19.40;6.37;;;;;;;12.18;100.00;100916.19;5060161;28;20028;-51
2022/10/22 05:22:48;;;;;;;21.42;6.15;;;;;;;12.21;100.00;100915.94;5065908;28;20303;-51
2022/10/22 05:25:13;;;;;;;16.55;5.85;;;;;;;12.25;100.00;100915.69;5057334;28;20021;-51
2022/10/22 05:27:38;;;;;;;18.73;6.40;;;;;;;12.26;100.00;100920.91;5047196;28;20035;-49
2022/10/22 05:30:04;;;;;;;17.95;5.63;;;;;;;12.27;100.00;100921.75;5063600;28;20482;-50
2022/10/22 05:32:29;;;;;;;18.45;6.63;;;;;;;12.28;100.00;100916.28;5071631;28;20091;-50
2022/10/22 05:34:55;;;;;;;16.97;5.47;;;;;;;12.30;100.00;100917.00;5059257;28;20040;-51
2022/10/22 05:37:20;;;;;;;17.40;5.68;;;;;;;12.31;100.00;100917.88;5065796;28;20286;-50
2022/10/22 05:39:45;;;;;;;17.45;5.28;;;;;;;12.31;100.00;100916.03;5071400;28;20414;-49
2022/10/22 05:42:10;;;;;;;14.95;5.30;;;;;;;12.32;100.00;100931.06;5072203;28;20078;-48
2022/10/22 05:44:36;;;;;;;13.52;5.32;;;;;;;12.33;100.00;100929.22;5072109;28;20111;-49
2022/10/22 05:47:01;;;;;;;20.00;5.70;;;;;;;12.32;100.00;100935.53;5066055;28;20478;-48
2022/10/22 05:49:26;;;;;;;12.25;4.80;;;;;;;12.31;100.00;100937.34;5063886;28;20052;-48
2022/10/22 05:51:51;;;;;;;16.08;4.57;;;;;;;12.31;100.00;100940.00;5059601;28;20028;-48
2022/10/22 05:54:19;;;;;;;15.43;4.83;;;;;;;12.28;100.00;100936.75;5049432;28;20310;-51
2022/10/22 05:56:45;;;;;;;19.42;5.15;;;;;;;12.29;100.00;100944.63;5056535;28;20652;-50
2022/10/22 05:59:10;;;;;;;13.77;5.00;;;;;;;12.27;100.00;100943.88;5071678;28;20028;-51
2022/10/22 06:01:37;;;;;;;15.27;4.28;;;;;;;12.27;100.00;100945.72;5071049;28;20020;-52
2022/10/22 06:04:05;;;;;;;13.75;4.13;;;;;;;12.25;100.00;100953.81;5070925;28;20031;-52
2022/10/22 06:06:34;;;;;;;11.33;4.00;;;;;;;12.25;100.00;100958.31;5066829;28;20520;-49
2022/10/22 06:09:04;;;;;;;15.20;3.85;;;;;;;12.23;100.00;100963.75;5066805;28;20036;-54
2022/10/22 06:11:29;;;;;;;14.32;3.95;;;;;;;12.22;100.00;100956.72;5048750;28;20110;-55
2022/10/22 06:13:55;;;;;;;10.82;3.80;;;;;;;12.20;100.00;100962.19;5060089;28;20768;-56
2022/10/22 06:16:20;;;;;;;11.43;3.75;;;;;;;12.22;100.00;100972.69;5067637;28;20094;-55
2022/10/22 06:18:45;;;;;;;13.90;4.32;;;;;;;12.21;100.00;100969.22;5068395;28;20744;-55
2022/10/22 06:21:13;;;;;;;12.55;3.85;;;;;;;12.20;100.00;100979.97;5040877;28;20020;-54
2022/10/22 06:23:39;;;;;;;15.15;4.05;;;;;;;12.21;100.00;100985.19;5070744;28;20086;-55
2022/10/22 06:26:05;;;;;;;14.15;4.28;;;;;;;12.20;100.00;100986.13;5066449;28;20029;-55
2022/10/22 06:28:31;;;;;;;13.98;4.10;;;;;;;12.21;100.00;100987.00;5066649;28;20028;-54
2022/10/22 06:30:59;;;;;;;12.45;4.22;;;;;;;12.20;100.00;100995.97;5058074;28;20453;-54
2022/10/22 06:33:25;;;;;;;11.90;4.68;;;;;;;12.19;100.00;100991.59;5065905;28;20118;-56
2022/10/22 06:35:51;;;;;;;9.40;3.22;;;;;;;12.20;100.00;100995.97;5067765;28;20047;-56
2022/10/22 06:38:16;;;;;;;12.77;3.67;;;;;;;12.19;100.00;100999.56;5068552;28;20028;-54
2022/10/22 06:40:43;;;;;;;13.57;3.90;;;;;;;12.21;100.00;101005.66;5066978;28;20036;-56
2022/10/22 06:43:09;;;;;;;13.75;3.83;;;;;;;12.20;100.00;101014.59;5065990;28;20057;-56
2022/10/22 06:45:35;;;;;;;13.25;3.60;;;;;;;12.18;100.00;101012.06;5068533;28;20119;-55
2022/10/22 06:48:00;;;;;;;14.07;3.60;;;;;;;12.18;100.00;101017.38;5072380;28;20107;-54
2022/10/22 06:50:25;;;;;;;13.75;3.72;;;;;;;12.16;100.00;101019.31;5071179;28;20461;-56
2022/10/22 06:52:51;;;;;;;12.50;3.50;;;;;;;12.16;100.00;101022.00;5070487;28;20020;-56
2022/10/22 06:55:16;;;;;;;13.15;3.70;;;;;;;12.15;100.00;101025.63;5070763;28;20036;-55
2022/10/22 06:57:41;;;;;;;18.27;4.10;;;;;;;12.15;100.00;101033.59;5071943;28;20044;-54
2022/10/22 07:00:07;;;;;;;14.05;3.42;;;;;;;12.14;100.00;101039.91;5070172;28;20105;-55
2022/10/22 07:02:32;;;;;;;11.32;3.10;;;;;;;12.13;100.00;101043.53;5058199;28;20471;-55
2022/10/22 07:04:58;;;;;;;12.95;3.58;;;;;;;12.12;100.00;101041.81;5070443;28;20043;-54
2022/10/22 07:07:23;;;;;;;7.53;3.05;;;;;;;12.13;100.00;101051.53;5071081;28;20073;-54
2022/10/22 07:09:48;;;;;;;12.57;3.22;;;;;;;12.13;100.00;101051.53;5071741;28;20422;-55
2022/10/22 07:12:15;;;;;;;9.18;3.22;;;;;;;12.15;100.00;101057.56;5055156;28;20033;-55
2022/10/22 07:14:40;;;;;;;11.52;3.25;;;;;;;12.19;100.00;101056.38;5071942;28;20035;-54
2022/10/22 07:17:06;;;;;;;12.82;3.00;;;;;;;12.24;100.00;101060.47;5065268;28;20022;-57
2022/10/22 07:19:31;;;;;;;18.42;3.80;;;;;;;12.26;100.00;101064.72;5061906;28;20608;-57
2022/10/22 07:21:56;;;;;;;14.05;3.70;;;;;;;12.29;100.00;101061.81;5068995;28;20028;-54
2022/10/22 07:24:22;;;;;;;10.57;3.30;;;;;;;12.32;100.00;101069.56;5061213;28;20032;-56
2022/10/22 07:26:47;;;;;;;14.70;3.67;;;;;;;12.36;100.00;101070.97;5071540;28;20036;-54
2022/10/22 07:29:14;;;;;;;11.32;3.13;;;;;;;12.39;100.00;101075.22;5057356;28;20040;-52
2022/10/22 07:31:40;;;;;;;10.35;3.00;;;;;;;12.39;100.00;101070.75;5062357;28;20467;-54
2022/10/22 07:34:05;;;;;;;12.38;3.08;;;;;;;12.43;100.00;101079.34;5068838;28;20059;-53
2022/10/22 07:36:30;;;;;;;8.65;3.35;;;;;;;12.45;100.00;101088.03;5069939;28;20489;-53
2022/10/22 07:38:57;;;;;;;12.10;3.85;;;;;;;12.50;100.00;101090.34;5065044;28;20455;-53
2022/10/22 07:41:23;;;;;;;10.65;2.88;;;;;;;12.55;100.00;101091.66;5057643;28;20072;-54
2022/10/22 07:43:49;;;;;;;13.20;3.78;;;;;;;12.61;100.00;101089.44;5067978;28;20090;-53
2022/10/22 07:46:14;;;;;;;11.85;3.30;;;;;;;12.68;100.00;101096.00;5070125;28;20036;-52
2022/10/22 07:48:40;;;;;;;13.32;2.95;;;;;;;12.73;100.00;101093.81;5068924;28;20682;-53
2022/10/22 07:51:05;;;;;;;17.15;3.72;;;;;;;12.77;100.00;101097.88;5058093;28;20052;-54
2022/10/22 07:53:31;;;;;;;13.23;3.38;;;;;;;12.82;100.00;101098.34;5051835;28;20029;-51
2022/10/22 07:55:56;;;;;;;13.00;3.17;;;;;;;12.89;100.00;101101.38;5049401;28;20486;-53
2022/10/22 07:58:22;;;;;;;12.52;3.45;;;;;;;12.95;100.00;101103.53;5061601;28;20098;-54
2022/10/22 08:00:48;;;;;;;9.90;3.20;;;;;;;12.98;100.00;101105.94;5066537;28;20501;-54
2022/10/22 08:03:15;;;;;;;10.23;3.15;;;;;;;13.01;100.00;101111.03;5056611;28;20091;-53
2022/10/22 08:05:44;;;;;;;13.23;3.45;;;;;;;13.06;100.00;101113.31;5061359;28;20108;-53
2022/10/22 08:08:11;;;;;;;16.57;3.40;;;;;;;13.14;100.00;101113.53;5088436;28;20457;-53
2022/10/22 08:10:37;;;;;;;13.40;3.10;;;;;;;13.19;100.00;101122.00;5074336;28;20025;-56
2022/10/22 08:13:04;;;;;;;11.60;3.20;;;;;;;13.28;100.00;101121.22;5082120;28;20535;-57
2022/10/22 08:15:30;;;;;;;13.32;3.15;;;;;;;13.35;100.00;101123.41;5081458;28;20085;-56
2022/10/22 08:17:55;;;;;;;14.13;2.78;;;;;;;13.42;100.00;101116.56;5081263;28;20020;-56
2022/10/22 08:20:20;;;;;;;12.15;3.17;;;;;;;13.49;100.00;101129.28;5086382;28;20112;-56
2022/10/22 08:22:45;;;;;;;15.00;3.47;;;;;;;13.57;100.00;101135.78;5062053;28;20097;-55
2022/10/22 08:25:11;;;;;;;9.27;2.60;;;;;;;13.64;100.00;101131.63;5085587;28;20031;-55
2022/10/22 08:27:37;;;;;;;11.23;3.20;;;;;;;13.72;100.00;101136.31;5082575;28;20020;-56
2022/10/22 08:30:04;;;;;;;8.85;2.97;;;;;;;13.85;100.00;101151.13;5084747;28;20028;-57
2022/10/22 08:32:30;;;;;;;8.50;3.33;;;;;;;13.98;100.00;101153.59;5081208;28;20031;-55
2022/10/22 08:34:55;;;;;;;11.43;2.50;;;;;;;14.06;100.00;101152.94;5084044;28;20020;-56
2022/10/22 08:37:20;;;;;;;10.82;2.53;;;;;;;14.16;100.00;101150.34;5083317;28;20107;-56
2022/10/22 08:39:46;;;;;;;7.95;2.55;;;;;;;14.24;100.00;101156.69;5086256;28;20020;-55
2022/10/22 08:42:29;;;;;;;15.85;2.85;;;;;;;14.32;100.00;101161.38;5081062;28;20033;-56
2022/10/22 08:45:13;;;;;;;11.70;2.58;;;;;;;14.39;100.00;101159.00;5076818;28;20501;-56
2022/10/22 08:47:54;;;;;;;11.75;2.63;;;;;;;14.46;100.00;101173.53;5079860;28;20043;-57
2022/10/22 08:50:29;;;;;;;9.18;2.90;;;;;;;14.53;100.00;101176.50;5078614;28;20047;-55
2022/10/22 08:52:59;;;;;;;10.15;2.78;;;;;;;14.57;100.00;101173.44;5079275;28;20109;-56
2022/10/22 08:55:27;;;;;;;7.47;2.45;;;;;;;14.63;100.00;101184.59;5081692;28;20092;-56
2022/10/22 08:58:05;;;;;;;14.23;3.28;;;;;;;14.68;100.00;101185.03;5080391;28;20645;-56
2022/10/22 09:00:39;;;;;;;7.07;2.80;;;;;;;14.73;100.00;101188.13;5077875;28;20089;-55
2022/10/22 09:03:30;;;;;;;10.95;2.40;;;;;;;14.78;100.00;101193.91;5083274;28;20043;-56
2022/10/22 09:06:07;;;;;;;14.30;3.17;;;;;;;14.82;98.85;101203.34;5079826;28;20032;-55
2022/10/22 09:08:35;;;;;;;9.05;2.65;;;;;;;14.85;99.41;101197.72;5075010;28;20474;-56
2022/10/22 09:11:14;;;;;;;13.43;2.78;;;;;;;14.88;100.00;101196.63;5080614;28;20077;-55
2022/10/22 09:13:43;;;;;;;13.10;2.45;;;;;;;14.90;98.71;101214.19;5080172;28;20169;-56
2022/10/22 09:16:34;;;;;;;9.52;2.40;;;;;;;14.91;98.79;101207.03;5076041;28;20039;-56
2022/10/22 09:19:12;;;;;;;8.80;2.42;;;;;;;14.88;97.90;101213.50;5077165;28;20451;-57
2022/10/22 09:21:41;;;;;;;11.93;2.90;;;;;;;14.87;98.65;101219.84;5082419;28;20024;-56
2022/10/22 09:24:32;;;;;;;11.00;2.88;;;;;;;14.89;98.79;101220.56;5075084;28;20480;-56
2022/10/22 09:26:58;;;;;;;10.02;3.05;;;;;;;14.90;98.59;101222.22;5081443;28;20469;-58
2022/10/22 09:29:31;;;;;;;11.43;3.08;;;;;;;14.90;98.01;101227.56;5078458;28;20020;-56
2022/10/22 09:31:56;;;;;;;9.30;2.75;;;;;;;14.92;97.82;101227.44;5084443;28;20035;-55
2022/10/22 09:34:22;;;;;;;12.57;2.70;;;;;;;14.91;97.86;101229.28;5080586;28;20024;-56
2022/10/22 09:36:57;;;;;;;9.20;2.70;;;;;;;14.94;97.99;101238.88;5080009;28;20031;-57
2022/10/22 09:39:33;;;;;;;13.70;3.35;;;;;;;14.94;97.62;101238.88;5082575;28;20019;-55
2022/10/22 09:41:58;;;;;;;11.07;3.00;;;;;;;14.96;97.37;101248.44;5077315;28;20401;-57
2022/10/22 09:44:23;;;;;;;11.27;2.35;;;;;;;14.99;97.39;101247.34;5074548;28;20032;-56
2022/10/22 09:46:49;;;;;;;9.20;2.33;;;;;;;15.02;96.82;101251.53;5082503;28;20024;-56
2022/10/22 09:49:18;;;;;;;7.82;2.38;;;;;;;15.04;96.88;101250.44;5073686;28;20056;-58
2022/10/22 09:51:54;;;;;;;10.70;2.65;;;;;;;15.07;96.79;101250.16;5078111;28;20042;-56
2022/10/22 09:54:25;;;;;;;10.68;2.70;;;;;;;15.11;96.10;101258.75;5077430;28;20024;-55
2022/10/22 09:56:57;;;;;;;8.50;2.25;;;;;;;15.14;96.79;101255.81;5079951;28;20286;-57
2022/10/22 09:59:32;;;;;;;12.27;2.45;;;;;;;15.19;97.06;101264.28;5080967;28;20021;-57
2022/10/22 10:02:01;;;;;;;14.02;3.45;;;;;;;15.19;96.24;101266.94;5076693;28;20033;-55
2022/10/22 10:04:26;;;;;;;11.05;2.60;;;;;;;15.19;96.33;101274.97;5059974;28;20131;-56
2022/10/22 10:06:55;;;;;;;12.30;2.58;;;;;;;15.21;94.96;101286.38;5084948;28;20111;-55
2022/10/22 10:09:23;;;;;;;13.25;2.72;;;;;;;15.23;95.01;101287.09;5084719;28;20064;-56
2022/10/22 10:12:11;;;;;;;15.05;2.75;;;;;;;15.24;95.36;101290.59;5085650;28;20035;-55
2022/10/22 10:14:45;;;;;;;13.52;3.08;;;;;;;15.25;95.88;101287.78;5082919;28;20040;-56
2022/10/22 10:17:43;;;;;;;9.68;2.58;;;;;;;15.26;95.58;101292.16;5078285;28;20071;-56
2022/10/22 10:20:27;;;;;;;11.60;2.85;;;;;;;15.26;95.53;101302.88;5065935;28;20024;-56
2022/10/22 10:23:01;;;;;;;14.32;2.75;;;;;;;15.25;95.71;101298.50;5070643;28;20202;-56
2022/10/22 10:25:45;;;;;;;12.48;3.13;;;;;;;15.33;96.45;101303.16;5060122;28;20045;-55
2022/10/22 10:28:45;;;;;;;11.77;2.60;;;;;;;15.38;96.44;101300.09;5072725;28;20505;-55
2022/10/22 10:31:29;;;;;;;15.02;2.58;;;;;;;15.42;95.12;101304.16;5061960;28;20426;-56
2022/10/22 10:34:16;;;;;;;11.55;2.40;;;;;;;15.48;95.04;101307.13;5062622;28;20489;-56
2022/10/22 10:36:53;;;;;;;7.20;2.50;;;;;;;15.53;95.29;101307.56;5062488;28;20064;-55
2022/10/22 10:39:50;;;;;;;11.98;3.03;;;;;;;15.62;95.22;101302.38;5068003;28;20489;-55
2022/10/22 10:42:42;;;;;;;16.00;2.63;;;;;;;15.67;95.45;101306.34;5054628;28;20102;-55
2022/10/22 10:45:19;;;;;;;8.13;2.28;;;;;;;15.75;94.30;101315.50;5071871;28;20145;-55
2022/10/22 10:48:09;;;;;;;9.15;2.47;;;;;;;15.84;93.88;101309.34;5071144;28;20028;-56
2022/10/22 10:50:58;;;;;;;11.57;2.38;;;;;;;15.97;93.73;101312.59;5072962;28;20135;-57
2022/10/22 10:53:29;;;;;;;10.32;2.42;;;;;;;16.03;92.34;101311.16;5069871;28;20033;-55
2022/10/22 10:56:04;;;;;;;6.35;2.55;;;;;;;16.09;90.39;101315.97;5072069;28;20048;-56
2022/10/22 10:58:33;;;;;;;13.60;2.90;;;;;;;16.14;89.76;101308.34;5071638;28;20417;-57
2022/10/22 11:01:22;;;;;;;10.13;2.50;;;;;;;16.23;91.75;101314.66;5070634;28;20468;-55
2022/10/22 11:04:23;;;;;;;12.55;3.08;;;;;;;16.27;90.88;101306.19;5070269;28;20110;-55
2022/10/22 11:06:54;;;;;;;12.68;2.97;;;;;;;16.32;89.62;101305.78;5068524;28;20029;-56
2022/10/22 11:09:33;;;;;;;8.13;2.40;;;;;;;16.39;89.14;101314.94;5064218;28;20038;-55
2022/10/22 11:12:02;;;;;;;11.00;2.35;;;;;;;16.52;88.03;101317.31;5054927;28;20029;-56
2022/10/22 11:14:35;;;;;;;17.17;2.95;;;;;;;16.66;86.76;101313.31;5072208;28;20047;-56
2022/10/22 11:17:05;;;;;;;13.60;3.13;;;;;;;16.70;86.46;101317.38;5069879;28;20063;-56
2022/10/22 11:19:42;;;;;;;14.93;2.47;;;;;;;16.74;86.21;101321.47;5071746;28;20028;-55
2022/10/22 11:22:15;;;;;;;11.55;2.63;;;;;;;16.72;85.08;101322.59;5070542;28;20115;-54
2022/10/22 11:24:49;;;;;;;11.48;2.60;;;;;;;16.75;85.93;101322.31;5068865;28;20024;-56